St. Andrews — WDC2864 — position and weather

sailwx.info

Track history (hours):
 
Tides and Currents Weather Stations Pressure Air Temp Water Temp Dewpoint Dewpoint Depression Visibility Wind Speed Wind Dir Waves Ship Positions

St. Andrews

Owner: Harley Marine Services, Inc, Seattle, WA. More information available from US FCC via Universal Licensing System and Coast Guard Vessel Documentation Center.

Last reported at 2018-Jun-22 12:56 UTC. Time now 2018-Jun-22 13:19 UTC.
Position N 40°39' W 074°06'.

Length 24 m; draft 3 m.

Type: Tug. MMSI: 366998820.

Date/timePositionNaut miles runAvg speedWind from/ knotsBaromVisibWave heightAir tempDewpointWater temp
2018-Jun-22 12:56N 40°39' W 074°06'0 0.0
2018-Jun-22 12:30N 40°39' W 074°06'0 0.0
2018-Jun-22 11:58N 40°39' W 074°06'0 0.0
2018-Jun-22 11:30N 40°39' W 074°06'0 0.0
2018-Jun-22 11:00N 40°39' W 074°06'0 0.0
2018-Jun-22 10:30N 40°39' W 074°06'0 0.0
2018-Jun-22 10:00N 40°39' W 074°06'0 0.0
2018-Jun-22 09:30N 40°39' W 074°06'0 0.0
2018-Jun-22 09:00N 40°39' W 074°06'1 1.8
2018-Jun-22 08:30N 40°39' W 074°07'0 0.1
2018-Jun-22 07:58N 40°39' W 074°07'2 4.2
2018-Jun-22 07:30N 40°39' W 074°04'3 6.9
2018-Jun-22 07:00N 40°40' W 074°00'0 0.0
2018-Jun-22 06:30N 40°40' W 074°00'0 0.0
2018-Jun-22 06:00N 40°40' W 074°00'0 0.0
2018-Jun-22 05:30N 40°40' W 074°00'0 0.0
2018-Jun-22 05:00N 40°40' W 074°00'0 0.0
2018-Jun-22 04:30N 40°40' W 074°00'0 0.0
2018-Jun-22 04:00N 40°40' W 074°00'0 0.0
2018-Jun-22 03:30N 40°40' W 074°00'0 0.0
2018-Jun-22 03:00N 40°40' W 074°00'0 0.0
2018-Jun-22 02:30N 40°40' W 073°60'0 0.0
2018-Jun-22 02:00N 40°40' W 074°00'0 0.0
2018-Jun-22 01:30N 40°40' W 074°00'0 0.0
2018-Jun-22 01:00N 40°40' W 074°00'0 0.0
2018-Jun-22 00:30N 40°40' W 074°00'0 0.0
2018-Jun-22 00:00N 40°40' W 074°00'0 0.0
2018-Jun-21 23:30N 40°40' W 074°00'0 0.0
2018-Jun-21 23:00N 40°40' W 074°00'0 0.0
2018-Jun-21 22:30N 40°40' W 074°00'0 0.0
2018-Jun-21 22:00N 40°40' W 074°00'0 0.1
2018-Jun-21 21:30N 40°40' W 074°00'4 7.6
2018-Jun-21 21:00N 40°39' W 074°05'5 8.9
2018-Jun-21 20:28N 40°39' W 074°11'1 0.1
2018-Jun-21 12:12N 40°38' W 074°12'0 0.1
2018-Jun-21 11:56N 40°38' W 074°12'0 0.0
2018-Jun-21 11:05N 40°38' W 074°12'0 0.0
2018-Jun-21 10:45N 40°38' W 074°12'0 0.0
2018-Jun-21 09:54N 40°38' W 074°12'0 0.0
2018-Jun-21 09:30N 40°38' W 074°12'1 0.1
2018-Jun-21 02:58N 40°39' W 074°11'510.1
2018-Jun-21 02:30N 40°39' W 074°05'4 7.8
2018-Jun-21 02:00N 40°40' W 074°00'0 0.0
2018-Jun-21 01:30N 40°40' W 074°00'0 0.1
2018-Jun-21 01:00N 40°40' W 074°00'0 0.1
2018-Jun-21 00:30N 40°40' W 074°00'0 0.0
2018-Jun-21 00:00N 40°40' W 074°00'0 0.2
2018-Jun-20 23:30N 40°40' W 074°00'2 4.5
2018-Jun-20 23:00N 40°41' W 074°03'1 2.6
2018-Jun-20 22:30N 40°40' W 074°04'1 1.9
2018-Jun-20 22:00N 40°40' W 074°05'0 0.0
2018-Jun-20 21:30N 40°40' W 074°05'0 0.0
2018-Jun-20 21:00N 40°40' W 074°05'0 0.0
2018-Jun-20 20:30N 40°40' W 074°05'0 0.0
2018-Jun-20 20:00N 40°40' W 074°05'0 0.0
2018-Jun-20 19:30N 40°40' W 074°05'0 0.0
2018-Jun-20 19:00N 40°40' W 074°05'0 0.0
2018-Jun-20 18:30N 40°40' W 074°05'0 0.0
2018-Jun-20 18:00N 40°40' W 074°05'0 0.0
2018-Jun-20 17:30N 40°40' W 074°05'0 0.0
2018-Jun-20 17:00N 40°40' W 074°05'0 0.0
2018-Jun-20 16:30N 40°40' W 074°05'2 3.1
2018-Jun-20 16:00N 40°40' W 074°03'1 1.7
2018-Jun-20 15:30N 40°41' W 074°03'0 0.1
2018-Jun-20 14:59N 40°41' W 074°03'0 0.0
2018-Jun-20 14:30N 40°41' W 074°03'0 0.0
2018-Jun-20 14:00N 40°41' W 074°03'0 0.7
2018-Jun-20 13:30N 40°40' W 074°03'2 4.1
2018-Jun-20 13:00N 40°39' W 074°05'0 0.4
2018-Jun-20 12:30N 40°39' W 074°05'1 1.6
2018-Jun-20 12:00N 40°39' W 074°06'2 3.3
2018-Jun-20 11:30N 40°40' W 074°05'0 0.0
2018-Jun-20 10:59N 40°40' W 074°05'0 0.0
2018-Jun-20 10:30N 40°40' W 074°05'0 0.0
2018-Jun-20 10:00N 40°40' W 074°05'0 0.0
2018-Jun-20 09:30N 40°40' W 074°05'0 0.0
2018-Jun-20 09:00N 40°40' W 074°05'0 0.0
2018-Jun-20 08:30N 40°40' W 074°05'0 0.0
2018-Jun-20 08:00N 40°40' W 074°05'0 0.0
2018-Jun-20 07:30N 40°40' W 074°05'0 0.0
2018-Jun-20 07:00N 40°40' W 074°05'0 0.0
2018-Jun-20 06:30N 40°40' W 074°05'0 0.0
2018-Jun-20 06:00N 40°40' W 074°05'0 0.0
2018-Jun-20 05:30N 40°40' W 074°05'0 0.0
2018-Jun-20 05:00N 40°40' W 074°05'0 0.0
2018-Jun-20 04:30N 40°40' W 074°05'0 0.0
2018-Jun-20 04:00N 40°40' W 074°05'0 0.0
2018-Jun-20 03:30N 40°40' W 074°05'0 0.0
2018-Jun-20 03:00N 40°40' W 074°05'0 0.0
2018-Jun-20 02:30N 40°40' W 074°05'0 0.0
2018-Jun-20 02:00N 40°40' W 074°05'0 0.0
2018-Jun-20 01:30N 40°40' W 074°05'0 0.0
2018-Jun-20 01:00N 40°40' W 074°05'0 0.0
2018-Jun-20 00:30N 40°40' W 074°05'3 6.4
2018-Jun-20 00:00N 40°40' W 074°01'1 1.5
2018-Jun-19 23:30N 40°40' W 074°00'0 0.0
2018-Jun-19 23:00N 40°40' W 074°00'0 0.0
2018-Jun-19 22:30N 40°40' W 074°00'0 0.0
2018-Jun-19 22:00N 40°40' W 074°00'0 0.0
2018-Jun-19 21:30N 40°40' W 074°00'0 0.0
2018-Jun-19 21:00N 40°40' W 074°00'0 0.0
2018-Jun-19 20:30N 40°40' W 074°00'0 0.0
2018-Jun-19 20:00N 40°40' W 074°00'0 0.0
2018-Jun-19 19:30N 40°40' W 074°00'0 0.8
2018-Jun-19 19:00N 40°40' W 074°01'4 7.1
2018-Jun-19 18:29N 40°37' W 074°03'4 7.7
2018-Jun-19 17:56N 40°34' W 073°58'3 7.9
2018-Jun-19 17:30N 40°34' W 073°54'6 1.9
2018-Jun-19 14:03N 40°36' W 074°02'010.0
2018-Jun-19 14:00N 40°36' W 074°02'2 3.3
2018-Jun-19 13:30N 40°38' W 074°03'0 0.0
2018-Jun-19 13:00N 40°38' W 074°04'0 0.0
2018-Jun-19 12:30N 40°38' W 074°04'0 0.1
2018-Jun-19 12:00N 40°38' W 074°04'0 0.0
2018-Jun-19 11:30N 40°38' W 074°04'1 2.0
2018-Jun-19 11:00N 40°38' W 074°04'2 4.0
2018-Jun-19 10:30N 40°39' W 074°06'1 1.2
2018-Jun-19 10:00N 40°39' W 074°06'0 0.0
2018-Jun-19 09:30N 40°39' W 074°06'0 0.0
2018-Jun-19 09:00N 40°39' W 074°06'0 0.0
2018-Jun-19 08:30N 40°39' W 074°06'0 0.0
2018-Jun-19 08:00N 40°39' W 074°06'0 0.0
2018-Jun-19 07:24N 40°39' W 074°06'0 0.0
2018-Jun-19 07:00N 40°39' W 074°06'0 0.0
2018-Jun-19 06:30N 40°39' W 074°06'0 0.0
2018-Jun-19 05:58N 40°39' W 074°06'0 0.0
2018-Jun-19 05:30N 40°39' W 074°06'0 0.0
2018-Jun-19 04:57N 40°39' W 074°06'0 0.0
2018-Jun-19 04:27N 40°39' W 074°06'0 0.0
2018-Jun-19 03:55N 40°39' W 074°06'0 0.0
2018-Jun-19 03:29N 40°39' W 074°06'0 0.0
2018-Jun-19 02:50N 40°39' W 074°06'0 0.0
2018-Jun-19 02:24N 40°39' W 074°06'0 0.0
2018-Jun-19 02:00N 40°39' W 074°06'0 0.0
2018-Jun-19 00:44N 40°39' W 074°06'0 0.0
2018-Jun-19 00:30N 40°39' W 074°06'0 0.0
2018-Jun-18 23:58N 40°39' W 074°06'0 0.2
2018-Jun-18 23:30N 40°39' W 074°06'0 1.0
2018-Jun-18 23:00N 40°39' W 074°06'2 4.0
2018-Jun-18 22:30N 40°39' W 074°04'3 6.1
2018-Jun-18 22:00N 40°40' W 074°00'0 0.0
2018-Jun-18 21:30N 40°40' W 074°00'2 4.6
2018-Jun-18 21:00N 40°41' W 074°03'0 0.1
2018-Jun-18 20:30N 40°41' W 074°03'0 0.1
2018-Jun-18 20:00N 40°41' W 074°03'0 0.1
2018-Jun-18 19:30N 40°41' W 074°03'2 4.1
2018-Jun-18 19:00N 40°39' W 074°04'1 2.4
2018-Jun-18 18:30N 40°39' W 074°06'3 6.4
2018-Jun-18 18:00N 40°41' W 074°03'2 4.9
2018-Jun-18 17:30N 40°39' W 074°04'1 1.1
2018-Jun-18 16:47N 40°38' W 074°04'0 0.1
2018-Jun-18 16:24N 40°38' W 074°04'0 0.1
2018-Jun-18 15:56N 40°38' W 074°04'0 0.1
2018-Jun-18 15:18N 40°38' W 074°04'0 0.1
2018-Jun-18 14:58N 40°38' W 074°04'0 0.1
2018-Jun-18 14:30N 40°38' W 074°04'0 0.1
2018-Jun-18 13:58N 40°38' W 074°04'0 0.1
2018-Jun-18 13:30N 40°38' W 074°04'0 0.2
2018-Jun-18 13:00N 40°38' W 074°04'0 0.2
2018-Jun-18 12:30N 40°37' W 074°04'0 0.0
2018-Jun-18 12:00N 40°37' W 074°04'1 1.4
2018-Jun-18 11:29N 40°38' W 074°04'2 4.4
2018-Jun-18 11:00N 40°39' W 074°06'1 1.1
2018-Jun-18 10:29N 40°39' W 074°06'0 0.0
2018-Jun-18 10:00N 40°39' W 074°06'0 0.0
2018-Jun-18 09:30N 40°39' W 074°06'0 0.0
2018-Jun-18 09:00N 40°39' W 074°06'0 0.0
2018-Jun-18 08:30N 40°39' W 074°06'0 0.0
2018-Jun-18 08:00N 40°39' W 074°06'0 0.0
2018-Jun-18 07:30N 40°39' W 074°06'0 0.0
2018-Jun-18 06:59N 40°39' W 074°06'0 0.0
2018-Jun-18 06:30N 40°39' W 074°06'0 0.0
2018-Jun-18 06:00N 40°39' W 074°06'0 0.0
2018-Jun-18 05:30N 40°39' W 074°06'0 0.0
2018-Jun-18 05:00N 40°39' W 074°06'0 0.5
2018-Jun-18 04:28N 40°39' W 074°06'0 0.7
2018-Jun-18 03:58N 40°39' W 074°07'2 3.5
2018-Jun-18 03:29N 40°40' W 074°08'2 1.9
2018-Jun-18 02:30N 40°42' W 074°09'0 0.0
2018-Jun-17 21:51N 40°42' W 074°09'0 0.9
2018-Jun-17 21:28N 40°42' W 074°08'2 3.6
2018-Jun-17 21:00N 40°40' W 074°08'2 3.2
2018-Jun-17 20:30N 40°39' W 074°07'3 6.1
2018-Jun-17 20:00N 40°40' W 074°03'1 1.3
2018-Jun-17 19:30N 40°41' W 074°03'2 4.2
2018-Jun-17 19:00N 40°40' W 074°00'0 0.0
2018-Jun-17 18:30N 40°40' W 074°00'0 0.0
2018-Jun-17 17:58N 40°40' W 074°00'0 0.0
2018-Jun-17 17:16N 40°40' W 074°00'0 0.0
2018-Jun-17 16:58N 40°40' W 074°00'0 0.0
2018-Jun-17 16:21N 40°40' W 074°00'0 0.0
2018-Jun-17 15:59N 40°40' W 074°00'0 0.0
2018-Jun-17 15:29N 40°40' W 074°00'0 0.0
2018-Jun-17 15:00N 40°40' W 074°00'0 0.0
2018-Jun-17 14:28N 40°40' W 074°00'0 0.0
2018-Jun-17 13:58N 40°40' W 074°00'0 0.0
2018-Jun-17 13:30N 40°40' W 074°00'0 0.0
2018-Jun-17 13:00N 40°40' W 074°00'3 4.9
2018-Jun-17 12:27N 40°40' W 074°03'1 3.1
2018-Jun-17 12:00N 40°40' W 074°05'0 0.0
2018-Jun-17 11:30N 40°40' W 074°05'0 0.0
2018-Jun-17 11:00N 40°40' W 074°05'0 0.0
2018-Jun-17 10:30N 40°40' W 074°05'0 0.0
2018-Jun-17 10:00N 40°40' W 074°05'0 0.0
2018-Jun-17 09:30N 40°40' W 074°05'0 0.0
2018-Jun-17 09:00N 40°40' W 074°05'0 0.0
2018-Jun-17 08:30N 40°40' W 074°05'0 0.0
2018-Jun-17 08:00N 40°40' W 074°05'0 0.0
2018-Jun-17 07:30N 40°40' W 074°05'0 0.0
2018-Jun-17 07:00N 40°40' W 074°05'0 0.0
2018-Jun-17 06:30N 40°40' W 074°05'0 0.0
2018-Jun-17 06:00N 40°40' W 074°05'0 0.0
2018-Jun-17 05:30N 40°40' W 074°05'2 3.9
2018-Jun-17 05:00N 40°41' W 074°03'1 1.2
2018-Jun-17 04:30N 40°40' W 074°03'2 3.7
2018-Jun-17 04:00N 40°39' W 074°04'0 0.1
2018-Jun-17 03:30N 40°39' W 074°04'0 0.0
2018-Jun-17 03:00N 40°39' W 074°04'0 0.0
2018-Jun-17 02:30N 40°39' W 074°04'0 0.0
2018-Jun-17 02:00N 40°39' W 074°04'0 0.0
2018-Jun-17 01:30N 40°39' W 074°04'0 0.0
2018-Jun-17 01:00N 40°39' W 074°04'0 0.1
2018-Jun-17 00:30N 40°38' W 074°04'0 0.2
2018-Jun-17 00:00N 40°38' W 074°04'0 0.2
2018-Jun-16 23:30N 40°38' W 074°04'0 0.1
2018-Jun-16 23:00N 40°38' W 074°04'0 0.0
2018-Jun-16 22:30N 40°38' W 074°04'0 1.0
2018-Jun-16 22:00N 40°38' W 074°04'1 2.3
2018-Jun-16 21:30N 40°39' W 074°04'2 3.2
2018-Jun-16 21:00N 40°39' W 074°06'1 1.1
2018-Jun-16 20:30N 40°39' W 074°06'0 0.0
2018-Jun-16 20:00N 40°39' W 074°06'0 0.0
2018-Jun-16 19:30N 40°39' W 074°06'0 0.0
2018-Jun-16 19:00N 40°39' W 074°06'0 0.0
2018-Jun-16 18:30N 40°39' W 074°06'0 0.0
2018-Jun-16 18:00N 40°39' W 074°06'0 0.0
2018-Jun-16 17:29N 40°39' W 074°06'0 0.0
2018-Jun-16 17:00N 40°39' W 074°06'2 2.6
2018-Jun-16 16:17N 40°39' W 074°08'1 3.5
2018-Jun-16 16:00N 40°38' W 074°09'2 4.4
2018-Jun-16 15:29N 40°39' W 074°07'0 0.2
2018-Jun-16 15:00N 40°39' W 074°06'0 0.9
2018-Jun-16 14:30N 40°39' W 074°06'3 6.1
2018-Jun-16 14:00N 40°41' W 074°03'1 2.6
2018-Jun-16 13:30N 40°40' W 074°01'1 1.8
2018-Jun-16 13:00N 40°40' W 074°00'0 0.0
2018-Jun-16 12:30N 40°40' W 074°00'0 0.0
2018-Jun-16 12:00N 40°40' W 074°00'0 0.0
2018-Jun-16 11:30N 40°40' W 074°00'0 0.0
2018-Jun-16 11:00N 40°40' W 074°00'0 0.0
2018-Jun-16 10:30N 40°40' W 074°00'0 0.0
2018-Jun-16 10:00N 40°40' W 074°00'0 0.0
2018-Jun-16 09:30N 40°40' W 074°00'0 0.0
2018-Jun-16 09:00N 40°40' W 074°00'0 0.0
2018-Jun-16 08:30N 40°40' W 074°00'0 0.0
2018-Jun-16 08:01N 40°40' W 074°00'0 0.0
2018-Jun-16 07:30N 40°40' W 074°00'0 0.0
2018-Jun-16 07:00N 40°40' W 074°00'0 0.0
2018-Jun-16 06:30N 40°40' W 074°00'0 0.0
2018-Jun-16 06:00N 40°40' W 074°00'0 0.0
2018-Jun-16 05:30N 40°40' W 074°00'0 0.0
2018-Jun-16 05:00N 40°40' W 074°00'0 0.0
2018-Jun-16 04:30N 40°40' W 074°00'0 0.0
2018-Jun-16 04:00N 40°40' W 074°00'2 3.4
2018-Jun-16 03:30N 40°41' W 074°02'1 1.3
2018-Jun-16 03:00N 40°41' W 074°03'3 5.4
2018-Jun-16 02:30N 40°39' W 074°05'3 4.8
2018-Jun-16 01:57N 40°40' W 074°09'1 3.1
2018-Jun-16 01:30N 40°41' W 074°09'2 4.7
2018-Jun-16 01:00N 40°39' W 074°08'2 2.8
2018-Jun-16 00:20N 40°39' W 074°06'0 0.0
2018-Jun-15 23:54N 40°39' W 074°06'0 0.0
2018-Jun-15 23:26N 40°39' W 074°06'0 0.0
2018-Jun-15 22:59N 40°39' W 074°06'0 0.0
2018-Jun-15 22:27N 40°39' W 074°06'0 0.0
2018-Jun-15 21:56N 40°39' W 074°06'0 0.0
2018-Jun-15 21:26N 40°39' W 074°06'0 0.0
2018-Jun-15 21:00N 40°39' W 074°06'2 3.3
2018-Jun-15 20:30N 40°40' W 074°04'1 2.9
2018-Jun-15 20:00N 40°41' W 074°03'2 4.6
2018-Jun-15 19:30N 40°39' W 074°05'3 5.5
2018-Jun-15 18:58N 40°40' W 074°09'0 0.5
2018-Jun-15 18:30N 40°40' W 074°09'2 3.1
2018-Jun-15 18:00N 40°41' W 074°10'0 0.0
2018-Jun-15 17:30N 40°41' W 074°10'0 0.0
2018-Jun-15 17:00N 40°41' W 074°10'0 0.0
2018-Jun-15 16:30N 40°41' W 074°10'0 0.0
2018-Jun-15 16:00N 40°41' W 074°10'0 0.0
2018-Jun-15 15:30N 40°41' W 074°10'1 1.2
2018-Jun-15 15:00N 40°41' W 074°09'0 0.1
2018-Jun-15 14:30N 40°41' W 074°09'0 0.9
2018-Jun-15 14:00N 40°41' W 074°08'2 4.0
2018-Jun-15 13:30N 40°39' W 074°08'1 2.1
2018-Jun-15 13:00N 40°39' W 074°06'0 0.2
2018-Jun-15 12:30N 40°39' W 074°06'4 8.2
2018-Jun-15 12:00N 40°36' W 074°03'4 7.9
2018-Jun-15 11:29N 40°34' W 073°58'3 6.5
2018-Jun-15 11:00N 40°34' W 073°54'6 0.7
2018-Jun-15 02:08N 40°36' W 074°02'1 8.4
2018-Jun-15 02:00N 40°37' W 074°03'4 6.8
2018-Jun-15 01:29N 40°39' W 074°06'0 0.2
2018-Jun-15 01:00N 40°39' W 074°06'3 5.1
2018-Jun-15 00:30N 40°39' W 074°03'3 5.0
2018-Jun-15 00:00N 40°40' W 074°00'0 0.1
2018-Jun-14 23:30N 40°40' W 074°00'0 0.0
2018-Jun-14 23:00N 40°40' W 074°00'0 0.0
2018-Jun-14 22:30N 40°40' W 074°00'0 0.0
2018-Jun-14 22:00N 40°40' W 074°00'0 0.0
2018-Jun-14 21:30N 40°40' W 074°00'0 0.0
2018-Jun-14 21:00N 40°40' W 074°00'0 0.0
2018-Jun-14 20:30N 40°40' W 074°00'0 0.2
2018-Jun-14 20:00N 40°40' W 074°00'4 7.2
2018-Jun-14 19:30N 40°39' W 074°05'1 2.6
2018-Jun-14 19:00N 40°39' W 074°06'3 6.3
2018-Jun-14 18:30N 40°40' W 074°03'2 3.9
2018-Jun-14 18:00N 40°40' W 074°00'0 0.0
2018-Jun-14 17:30N 40°40' W 074°00'0 0.0
2018-Jun-14 17:00N 40°40' W 074°00'0 0.0
2018-Jun-14 16:30N 40°40' W 074°00'0 0.0
2018-Jun-14 16:00N 40°40' W 074°00'0 0.0
2018-Jun-14 15:30N 40°40' W 074°00'0 0.0
2018-Jun-14 15:00N 40°40' W 074°00'0 0.5
2018-Jun-14 14:30N 40°40' W 074°00'3 6.1
2018-Jun-14 14:00N 40°39' W 074°04'1 1.6
2018-Jun-14 13:30N 40°39' W 074°05'0 0.9
2018-Jun-14 12:58N 40°39' W 074°06'2 3.3
2018-Jun-14 12:30N 40°40' W 074°04'0 0.6
2018-Jun-14 12:00N 40°40' W 074°04'1 2.1
2018-Jun-14 11:30N 40°40' W 074°03'1 1.5
2018-Jun-14 11:00N 40°41' W 074°03'1 1.3
2018-Jun-14 10:30N 40°40' W 074°03'2 3.4
2018-Jun-14 10:00N 40°40' W 074°05'0 0.0
2018-Jun-14 09:30N 40°40' W 074°05'0 0.0
2018-Jun-14 09:00N 40°40' W 074°05'0 0.0
2018-Jun-14 08:30N 40°40' W 074°05'0 0.0
2018-Jun-14 08:00N 40°40' W 074°05'0 0.0
2018-Jun-14 07:30N 40°40' W 074°05'0 0.0
2018-Jun-14 07:00N 40°40' W 074°05'0 0.0
2018-Jun-14 06:30N 40°40' W 074°05'0 0.0
2018-Jun-14 06:00N 40°40' W 074°05'0 0.0
2018-Jun-14 05:30N 40°40' W 074°05'0 0.0
2018-Jun-14 05:00N 40°40' W 074°05'0 0.0
2018-Jun-14 04:30N 40°40' W 074°05'0 0.0
2018-Jun-14 04:00N 40°40' W 074°05'0 0.0
2018-Jun-14 03:30N 40°40' W 074°05'0 0.0
2018-Jun-14 03:00N 40°40' W 074°05'0 0.0
2018-Jun-14 02:30N 40°40' W 074°05'2 3.3
2018-Jun-14 01:58N 40°39' W 074°07'0 0.3
2018-Jun-14 01:30N 40°39' W 074°06'1 1.0
2018-Jun-14 00:59N 40°39' W 074°06'1 1.5
2018-Jun-14 00:30N 40°39' W 074°05'1 2.2
2018-Jun-14 00:00N 40°40' W 074°04'0 0.1
2018-Jun-13 23:30N 40°40' W 074°04'0 0.0
2018-Jun-13 23:00N 40°40' W 074°04'0 0.9
2018-Jun-13 22:30N 40°40' W 074°04'2 4.5
2018-Jun-13 22:00N 40°39' W 074°07'3 4.5
2018-Jun-13 21:25N 40°39' W 074°10'0 0.2
2018-Jun-13 19:44N 40°39' W 074°11'2 9.0
2018-Jun-13 19:30N 40°39' W 074°08'4 8.5
2018-Jun-13 19:00N 40°39' W 074°02'2 4.2
2018-Jun-13 18:30N 40°40' W 073°60'0 0.0
2018-Jun-13 18:00N 40°40' W 074°00'0 0.0
2018-Jun-13 17:30N 40°40' W 074°00'0 0.1
2018-Jun-13 17:00N 40°40' W 074°00'3 5.7
2018-Jun-13 16:30N 40°39' W 074°04'2 4.0
2018-Jun-13 16:00N 40°39' W 074°06'3 6.6
2018-Jun-13 15:30N 40°41' W 074°03'1 3.0
2018-Jun-13 15:00N 40°40' W 074°04'3 4.0
2018-Jun-13 14:21N 40°39' W 074°07'3 7.7
2018-Jun-13 14:00N 40°39' W 074°04'3 5.6
2018-Jun-13 13:30N 40°40' W 074°00'0 0.0
2018-Jun-13 13:00N 40°40' W 074°00'0 0.0
2018-Jun-13 12:29N 40°40' W 074°00'0 0.0
2018-Jun-13 12:00N 40°40' W 074°00'0 0.9
2018-Jun-13 11:30N 40°40' W 074°01'3 5.2
2018-Jun-13 11:00N 40°39' W 074°04'2 4.7
2018-Jun-13 10:29N 40°39' W 074°07'3 5.2
2018-Jun-13 09:59N 40°39' W 074°10'1 2.3
2018-Jun-13 09:30N 40°38' W 074°12'0 0.0
2018-Jun-13 08:34N 40°38' W 074°12'0 0.0
2018-Jun-13 07:56N 40°38' W 074°12'0 0.0
2018-Jun-13 07:00N 40°38' W 074°12'0 0.0
2018-Jun-13 06:27N 40°38' W 074°12'0 0.0
2018-Jun-13 02:33N 40°38' W 074°12'0 0.1
2018-Jun-13 02:28N 40°38' W 074°12'1 1.5
2018-Jun-13 01:50N 40°39' W 074°11'3 8.6
2018-Jun-13 01:30N 40°39' W 074°07'4 8.5
2018-Jun-13 01:00N 40°39' W 074°01'1 2.3
2018-Jun-13 00:30N 40°40' W 074°00'0 0.0
2018-Jun-13 00:00N 40°40' W 074°00'0 0.0
2018-Jun-12 23:30N 40°40' W 074°00'0 0.0
2018-Jun-12 23:00N 40°40' W 074°00'0 0.0
2018-Jun-12 22:30N 40°40' W 074°00'0 0.1
2018-Jun-12 22:00N 40°40' W 074°00'0 0.0
2018-Jun-12 21:29N 40°40' W 074°00'0 0.0
2018-Jun-12 21:00N 40°40' W 074°00'0 0.0
2018-Jun-12 20:30N 40°40' W 074°00'0 0.0
2018-Jun-12 20:00N 40°40' W 074°00'0 0.0
2018-Jun-12 19:30N 40°40' W 074°00'0 0.0
2018-Jun-12 19:00N 40°40' W 074°00'0 0.0
2018-Jun-12 18:30N 40°40' W 074°00'0 0.0
2018-Jun-12 18:00N 40°40' W 074°00'0 0.0
2018-Jun-12 17:30N 40°40' W 074°00'0 0.0
2018-Jun-12 17:00N 40°40' W 074°00'0 0.0
2018-Jun-12 16:30N 40°40' W 074°00'0 0.0
2018-Jun-12 16:00N 40°40' W 074°00'0 0.0
2018-Jun-12 15:30N 40°40' W 074°00'0 0.0
2018-Jun-12 15:00N 40°40' W 074°00'0 0.0
2018-Jun-12 14:30N 40°40' W 074°00'0 0.0
2018-Jun-12 14:00N 40°40' W 074°00'0 0.0
2018-Jun-12 13:30N 40°40' W 074°00'0 0.0
2018-Jun-12 13:00N 40°40' W 074°00'  
Track history (hours):
 
Tides and Currents Weather Stations Pressure Air Temp Water Temp Dewpoint Dewpoint Depression Visibility Wind Speed Wind Dir Waves Ship Positions

St. Andrews

Owner: Harley Marine Services, Inc, Seattle, WA. More information available from US FCC via Universal Licensing System and Coast Guard Vessel Documentation Center.

Last reported at 2018-Jun-22 12:56 UTC. Time now 2018-Jun-22 13:19 UTC.
Position N 40°39' W 074°06'.

Length 24 m; draft 3 m.

Type: Tug. MMSI: 366998820.

Date/timePositionNaut miles runAvg speedWind from/ knotsBaromVisibWave heightAir tempDewpointWater temp
2018-Jun-22 12:56N 40°39' W 074°06'0 0.0
2018-Jun-22 12:30N 40°39' W 074°06'0 0.0
2018-Jun-22 11:58N 40°39' W 074°06'0 0.0
2018-Jun-22 11:30N 40°39' W 074°06'0 0.0
2018-Jun-22 11:00N 40°39' W 074°06'0 0.0
2018-Jun-22 10:30N 40°39' W 074°06'0 0.0
2018-Jun-22 10:00N 40°39' W 074°06'0 0.0
2018-Jun-22 09:30N 40°39' W 074°06'0 0.0
2018-Jun-22 09:00N 40°39' W 074°06'1 1.8
2018-Jun-22 08:30N 40°39' W 074°07'0 0.1
2018-Jun-22 07:58N 40°39' W 074°07'2 4.2
2018-Jun-22 07:30N 40°39' W 074°04'3 6.9
2018-Jun-22 07:00N 40°40' W 074°00'0 0.0
2018-Jun-22 06:30N 40°40' W 074°00'0 0.0
2018-Jun-22 06:00N 40°40' W 074°00'0 0.0
2018-Jun-22 05:30N 40°40' W 074°00'0 0.0
2018-Jun-22 05:00N 40°40' W 074°00'0 0.0
2018-Jun-22 04:30N 40°40' W 074°00'0 0.0
2018-Jun-22 04:00N 40°40' W 074°00'0 0.0
2018-Jun-22 03:30N 40°40' W 074°00'0 0.0
2018-Jun-22 03:00N 40°40' W 074°00'0 0.0
2018-Jun-22 02:30N 40°40' W 073°60'0 0.0
2018-Jun-22 02:00N 40°40' W 074°00'0 0.0
2018-Jun-22 01:30N 40°40' W 074°00'0 0.0
2018-Jun-22 01:00N 40°40' W 074°00'0 0.0
2018-Jun-22 00:30N 40°40' W 074°00'0 0.0
2018-Jun-22 00:00N 40°40' W 074°00'0 0.0
2018-Jun-21 23:30N 40°40' W 074°00'0 0.0
2018-Jun-21 23:00N 40°40' W 074°00'0 0.0
2018-Jun-21 22:30N 40°40' W 074°00'0 0.0
2018-Jun-21 22:00N 40°40' W 074°00'0 0.1
2018-Jun-21 21:30N 40°40' W 074°00'4 7.6
2018-Jun-21 21:00N 40°39' W 074°05'5 8.9
2018-Jun-21 20:28N 40°39' W 074°11'1 0.1
2018-Jun-21 12:12N 40°38' W 074°12'0 0.1
2018-Jun-21 11:56N 40°38' W 074°12'0 0.0
2018-Jun-21 11:05N 40°38' W 074°12'0 0.0
2018-Jun-21 10:45N 40°38' W 074°12'0 0.0
2018-Jun-21 09:54N 40°38' W 074°12'0 0.0
2018-Jun-21 09:30N 40°38' W 074°12'1 0.1
2018-Jun-21 02:58N 40°39' W 074°11'510.1
2018-Jun-21 02:30N 40°39' W 074°05'4 7.8
2018-Jun-21 02:00N 40°40' W 074°00'0 0.0
2018-Jun-21 01:30N 40°40' W 074°00'0 0.1
2018-Jun-21 01:00N 40°40' W 074°00'0 0.1
2018-Jun-21 00:30N 40°40' W 074°00'0 0.0
2018-Jun-21 00:00N 40°40' W 074°00'0 0.2
2018-Jun-20 23:30N 40°40' W 074°00'2 4.5
2018-Jun-20 23:00N 40°41' W 074°03'1 2.6
2018-Jun-20 22:30N 40°40' W 074°04'1 1.9
2018-Jun-20 22:00N 40°40' W 074°05'0 0.0
2018-Jun-20 21:30N 40°40' W 074°05'0 0.0
2018-Jun-20 21:00N 40°40' W 074°05'0 0.0
2018-Jun-20 20:30N 40°40' W 074°05'0 0.0
2018-Jun-20 20:00N 40°40' W 074°05'0 0.0
2018-Jun-20 19:30N 40°40' W 074°05'0 0.0
2018-Jun-20 19:00N 40°40' W 074°05'0 0.0
2018-Jun-20 18:30N 40°40' W 074°05'0 0.0
2018-Jun-20 18:00N 40°40' W 074°05'0 0.0
2018-Jun-20 17:30N 40°40' W 074°05'0 0.0
2018-Jun-20 17:00N 40°40' W 074°05'0 0.0
2018-Jun-20 16:30N 40°40' W 074°05'2 3.1
2018-Jun-20 16:00N 40°40' W 074°03'1 1.7
2018-Jun-20 15:30N 40°41' W 074°03'0 0.1
2018-Jun-20 14:59N 40°41' W 074°03'0 0.0
2018-Jun-20 14:30N 40°41' W 074°03'0 0.0
2018-Jun-20 14:00N 40°41' W 074°03'0 0.7
2018-Jun-20 13:30N 40°40' W 074°03'2 4.1
2018-Jun-20 13:00N 40°39' W 074°05'0 0.4
2018-Jun-20 12:30N 40°39' W 074°05'1 1.6
2018-Jun-20 12:00N 40°39' W 074°06'2 3.3
2018-Jun-20 11:30N 40°40' W 074°05'0 0.0
2018-Jun-20 10:59N 40°40' W 074°05'0 0.0
2018-Jun-20 10:30N 40°40' W 074°05'0 0.0
2018-Jun-20 10:00N 40°40' W 074°05'0 0.0
2018-Jun-20 09:30N 40°40' W 074°05'0 0.0
2018-Jun-20 09:00N 40°40' W 074°05'0 0.0
2018-Jun-20 08:30N 40°40' W 074°05'0 0.0
2018-Jun-20 08:00N 40°40' W 074°05'0 0.0
2018-Jun-20 07:30N 40°40' W 074°05'0 0.0
2018-Jun-20 07:00N 40°40' W 074°05'0 0.0
2018-Jun-20 06:30N 40°40' W 074°05'0 0.0
2018-Jun-20 06:00N 40°40' W 074°05'0 0.0
2018-Jun-20 05:30N 40°40' W 074°05'0 0.0
2018-Jun-20 05:00N 40°40' W 074°05'0 0.0
2018-Jun-20 04:30N 40°40' W 074°05'0 0.0
2018-Jun-20 04:00N 40°40' W 074°05'0 0.0
2018-Jun-20 03:30N 40°40' W 074°05'0 0.0
2018-Jun-20 03:00N 40°40' W 074°05'0 0.0
2018-Jun-20 02:30N 40°40' W 074°05'0 0.0
2018-Jun-20 02:00N 40°40' W 074°05'0 0.0
2018-Jun-20 01:30N 40°40' W 074°05'0 0.0
2018-Jun-20 01:00N 40°40' W 074°05'0 0.0
2018-Jun-20 00:30N 40°40' W 074°05'3 6.4
2018-Jun-20 00:00N 40°40' W 074°01'1 1.5
2018-Jun-19 23:30N 40°40' W 074°00'0 0.0
2018-Jun-19 23:00N 40°40' W 074°00'0 0.0
2018-Jun-19 22:30N 40°40' W 074°00'0 0.0
2018-Jun-19 22:00N 40°40' W 074°00'0 0.0
2018-Jun-19 21:30N 40°40' W 074°00'0 0.0
2018-Jun-19 21:00N 40°40' W 074°00'0 0.0
2018-Jun-19 20:30N 40°40' W 074°00'0 0.0
2018-Jun-19 20:00N 40°40' W 074°00'0 0.0
2018-Jun-19 19:30N 40°40' W 074°00'0 0.8
2018-Jun-19 19:00N 40°40' W 074°01'4 7.1
2018-Jun-19 18:29N 40°37' W 074°03'4 7.7
2018-Jun-19 17:56N 40°34' W 073°58'3 7.9
2018-Jun-19 17:30N 40°34' W 073°54'6 1.9
2018-Jun-19 14:03N 40°36' W 074°02'010.0
2018-Jun-19 14:00N 40°36' W 074°02'2 3.3
2018-Jun-19 13:30N 40°38' W 074°03'0 0.0
2018-Jun-19 13:00N 40°38' W 074°04'0 0.0
2018-Jun-19 12:30N 40°38' W 074°04'0 0.1
2018-Jun-19 12:00N 40°38' W 074°04'0 0.0
2018-Jun-19 11:30N 40°38' W 074°04'1 2.0
2018-Jun-19 11:00N 40°38' W 074°04'2 4.0
2018-Jun-19 10:30N 40°39' W 074°06'1 1.2
2018-Jun-19 10:00N 40°39' W 074°06'0 0.0
2018-Jun-19 09:30N 40°39' W 074°06'0 0.0
2018-Jun-19 09:00N 40°39' W 074°06'0 0.0
2018-Jun-19 08:30N 40°39' W 074°06'0 0.0
2018-Jun-19 08:00N 40°39' W 074°06'0 0.0
2018-Jun-19 07:24N 40°39' W 074°06'0 0.0
2018-Jun-19 07:00N 40°39' W 074°06'0 0.0
2018-Jun-19 06:30N 40°39' W 074°06'0 0.0
2018-Jun-19 05:58N 40°39' W 074°06'0 0.0
2018-Jun-19 05:30N 40°39' W 074°06'0 0.0
2018-Jun-19 04:57N 40°39' W 074°06'0 0.0
2018-Jun-19 04:27N 40°39' W 074°06'0 0.0
2018-Jun-19 03:55N 40°39' W 074°06'0 0.0
2018-Jun-19 03:29N 40°39' W 074°06'0 0.0
2018-Jun-19 02:50N 40°39' W 074°06'0 0.0
2018-Jun-19 02:24N 40°39' W 074°06'0 0.0
2018-Jun-19 02:00N 40°39' W 074°06'0 0.0
2018-Jun-19 00:44N 40°39' W 074°06'0 0.0
2018-Jun-19 00:30N 40°39' W 074°06'0 0.0
2018-Jun-18 23:58N 40°39' W 074°06'0 0.2
2018-Jun-18 23:30N 40°39' W 074°06'0 1.0
2018-Jun-18 23:00N 40°39' W 074°06'2 4.0
2018-Jun-18 22:30N 40°39' W 074°04'3 6.1
2018-Jun-18 22:00N 40°40' W 074°00'0 0.0
2018-Jun-18 21:30N 40°40' W 074°00'2 4.6
2018-Jun-18 21:00N 40°41' W 074°03'0 0.1
2018-Jun-18 20:30N 40°41' W 074°03'0 0.1
2018-Jun-18 20:00N 40°41' W 074°03'0 0.1
2018-Jun-18 19:30N 40°41' W 074°03'2 4.1
2018-Jun-18 19:00N 40°39' W 074°04'1 2.4
2018-Jun-18 18:30N 40°39' W 074°06'3 6.4
2018-Jun-18 18:00N 40°41' W 074°03'2 4.9
2018-Jun-18 17:30N 40°39' W 074°04'1 1.1
2018-Jun-18 16:47N 40°38' W 074°04'0 0.1
2018-Jun-18 16:24N 40°38' W 074°04'0 0.1
2018-Jun-18 15:56N 40°38' W 074°04'0 0.1
2018-Jun-18 15:18N 40°38' W 074°04'0 0.1
2018-Jun-18 14:58N 40°38' W 074°04'0 0.1
2018-Jun-18 14:30N 40°38' W 074°04'0 0.1
2018-Jun-18 13:58N 40°38' W 074°04'0 0.1
2018-Jun-18 13:30N 40°38' W 074°04'0 0.2
2018-Jun-18 13:00N 40°38' W 074°04'0 0.2
2018-Jun-18 12:30N 40°37' W 074°04'0 0.0
2018-Jun-18 12:00N 40°37' W 074°04'1 1.4
2018-Jun-18 11:29N 40°38' W 074°04'2 4.4
2018-Jun-18 11:00N 40°39' W 074°06'1 1.1
2018-Jun-18 10:29N 40°39' W 074°06'0 0.0
2018-Jun-18 10:00N 40°39' W 074°06'0 0.0
2018-Jun-18 09:30N 40°39' W 074°06'0 0.0
2018-Jun-18 09:00N 40°39' W 074°06'0 0.0
2018-Jun-18 08:30N 40°39' W 074°06'0 0.0
2018-Jun-18 08:00N 40°39' W 074°06'0 0.0
2018-Jun-18 07:30N 40°39' W 074°06'0 0.0
2018-Jun-18 06:59N 40°39' W 074°06'0 0.0
2018-Jun-18 06:30N 40°39' W 074°06'0 0.0
2018-Jun-18 06:00N 40°39' W 074°06'0 0.0
2018-Jun-18 05:30N 40°39' W 074°06'0 0.0
2018-Jun-18 05:00N 40°39' W 074°06'0 0.5
2018-Jun-18 04:28N 40°39' W 074°06'0 0.7
2018-Jun-18 03:58N 40°39' W 074°07'2 3.5
2018-Jun-18 03:29N 40°40' W 074°08'2 1.9
2018-Jun-18 02:30N 40°42' W 074°09'0 0.0
2018-Jun-17 21:51N 40°42' W 074°09'0 0.9
2018-Jun-17 21:28N 40°42' W 074°08'2 3.6
2018-Jun-17 21:00N 40°40' W 074°08'2 3.2
2018-Jun-17 20:30N 40°39' W 074°07'3 6.1
2018-Jun-17 20:00N 40°40' W 074°03'1 1.3
2018-Jun-17 19:30N 40°41' W 074°03'2 4.2
2018-Jun-17 19:00N 40°40' W 074°00'0 0.0
2018-Jun-17 18:30N 40°40' W 074°00'0 0.0
2018-Jun-17 17:58N 40°40' W 074°00'0 0.0
2018-Jun-17 17:16N 40°40' W 074°00'0 0.0
2018-Jun-17 16:58N 40°40' W 074°00'0 0.0
2018-Jun-17 16:21N 40°40' W 074°00'0 0.0
2018-Jun-17 15:59N 40°40' W 074°00'0 0.0
2018-Jun-17 15:29N 40°40' W 074°00'0 0.0
2018-Jun-17 15:00N 40°40' W 074°00'0 0.0
2018-Jun-17 14:28N 40°40' W 074°00'0 0.0
2018-Jun-17 13:58N 40°40' W 074°00'0 0.0
2018-Jun-17 13:30N 40°40' W 074°00'0 0.0
2018-Jun-17 13:00N 40°40' W 074°00'3 4.9
2018-Jun-17 12:27N 40°40' W 074°03'1 3.1
2018-Jun-17 12:00N 40°40' W 074°05'0 0.0
2018-Jun-17 11:30N 40°40' W 074°05'0 0.0
2018-Jun-17 11:00N 40°40' W 074°05'0 0.0
2018-Jun-17 10:30N 40°40' W 074°05'0 0.0
2018-Jun-17 10:00N 40°40' W 074°05'0 0.0
2018-Jun-17 09:30N 40°40' W 074°05'0 0.0
2018-Jun-17 09:00N 40°40' W 074°05'0 0.0
2018-Jun-17 08:30N 40°40' W 074°05'0 0.0
2018-Jun-17 08:00N 40°40' W 074°05'0 0.0
2018-Jun-17 07:30N 40°40' W 074°05'0 0.0
2018-Jun-17 07:00N 40°40' W 074°05'0 0.0
2018-Jun-17 06:30N 40°40' W 074°05'0 0.0
2018-Jun-17 06:00N 40°40' W 074°05'0 0.0
2018-Jun-17 05:30N 40°40' W 074°05'2 3.9
2018-Jun-17 05:00N 40°41' W 074°03'1 1.2
2018-Jun-17 04:30N 40°40' W 074°03'2 3.7
2018-Jun-17 04:00N 40°39' W 074°04'0 0.1
2018-Jun-17 03:30N 40°39' W 074°04'0 0.0
2018-Jun-17 03:00N 40°39' W 074°04'0 0.0
2018-Jun-17 02:30N 40°39' W 074°04'0 0.0
2018-Jun-17 02:00N 40°39' W 074°04'0 0.0
2018-Jun-17 01:30N 40°39' W 074°04'0 0.0
2018-Jun-17 01:00N 40°39' W 074°04'0 0.1
2018-Jun-17 00:30N 40°38' W 074°04'0 0.2
2018-Jun-17 00:00N 40°38' W 074°04'0 0.2
2018-Jun-16 23:30N 40°38' W 074°04'0 0.1
2018-Jun-16 23:00N 40°38' W 074°04'0 0.0
2018-Jun-16 22:30N 40°38' W 074°04'0 1.0
2018-Jun-16 22:00N 40°38' W 074°04'1 2.3
2018-Jun-16 21:30N 40°39' W 074°04'2 3.2
2018-Jun-16 21:00N 40°39' W 074°06'1 1.1
2018-Jun-16 20:30N 40°39' W 074°06'0 0.0
2018-Jun-16 20:00N 40°39' W 074°06'0 0.0
2018-Jun-16 19:30N 40°39' W 074°06'0 0.0
2018-Jun-16 19:00N 40°39' W 074°06'0 0.0
2018-Jun-16 18:30N 40°39' W 074°06'0 0.0
2018-Jun-16 18:00N 40°39' W 074°06'0 0.0
2018-Jun-16 17:29N 40°39' W 074°06'0 0.0
2018-Jun-16 17:00N 40°39' W 074°06'2 2.6
2018-Jun-16 16:17N 40°39' W 074°08'1 3.5
2018-Jun-16 16:00N 40°38' W 074°09'2 4.4
2018-Jun-16 15:29N 40°39' W 074°07'0 0.2
2018-Jun-16 15:00N 40°39' W 074°06'0 0.9
2018-Jun-16 14:30N 40°39' W 074°06'3 6.1
2018-Jun-16 14:00N 40°41' W 074°03'1 2.6
2018-Jun-16 13:30N 40°40' W 074°01'1 1.8
2018-Jun-16 13:00N 40°40' W 074°00'0 0.0
2018-Jun-16 12:30N 40°40' W 074°00'0 0.0
2018-Jun-16 12:00N 40°40' W 074°00'0 0.0
2018-Jun-16 11:30N 40°40' W 074°00'0 0.0
2018-Jun-16 11:00N 40°40' W 074°00'0 0.0
2018-Jun-16 10:30N 40°40' W 074°00'0 0.0
2018-Jun-16 10:00N 40°40' W 074°00'0 0.0
2018-Jun-16 09:30N 40°40' W 074°00'0 0.0
2018-Jun-16 09:00N 40°40' W 074°00'0 0.0
2018-Jun-16 08:30N 40°40' W 074°00'0 0.0
2018-Jun-16 08:01N 40°40' W 074°00'0 0.0
2018-Jun-16 07:30N 40°40' W 074°00'0 0.0
2018-Jun-16 07:00N 40°40' W 074°00'0 0.0
2018-Jun-16 06:30N 40°40' W 074°00'0 0.0
2018-Jun-16 06:00N 40°40' W 074°00'0 0.0
2018-Jun-16 05:30N 40°40' W 074°00'0 0.0
2018-Jun-16 05:00N 40°40' W 074°00'0 0.0
2018-Jun-16 04:30N 40°40' W 074°00'0 0.0
2018-Jun-16 04:00N 40°40' W 074°00'2 3.4
2018-Jun-16 03:30N 40°41' W 074°02'1 1.3
2018-Jun-16 03:00N 40°41' W 074°03'3 5.4
2018-Jun-16 02:30N 40°39' W 074°05'3 4.8
2018-Jun-16 01:57N 40°40' W 074°09'1 3.1
2018-Jun-16 01:30N 40°41' W 074°09'2 4.7
2018-Jun-16 01:00N 40°39' W 074°08'2 2.8
2018-Jun-16 00:20N 40°39' W 074°06'0 0.0
2018-Jun-15 23:54N 40°39' W 074°06'0 0.0
2018-Jun-15 23:26N 40°39' W 074°06'0 0.0
2018-Jun-15 22:59N 40°39' W 074°06'0 0.0
2018-Jun-15 22:27N 40°39' W 074°06'0 0.0
2018-Jun-15 21:56N 40°39' W 074°06'0 0.0
2018-Jun-15 21:26N 40°39' W 074°06'0 0.0
2018-Jun-15 21:00N 40°39' W 074°06'2 3.3
2018-Jun-15 20:30N 40°40' W 074°04'1 2.9
2018-Jun-15 20:00N 40°41' W 074°03'2 4.6
2018-Jun-15 19:30N 40°39' W 074°05'3 5.5
2018-Jun-15 18:58N 40°40' W 074°09'0 0.5
2018-Jun-15 18:30N 40°40' W 074°09'2 3.1
2018-Jun-15 18:00N 40°41' W 074°10'0 0.0
2018-Jun-15 17:30N 40°41' W 074°10'0 0.0
2018-Jun-15 17:00N 40°41' W 074°10'0 0.0
2018-Jun-15 16:30N 40°41' W 074°10'0 0.0
2018-Jun-15 16:00N 40°41' W 074°10'0 0.0
2018-Jun-15 15:30N 40°41' W 074°10'1 1.2
2018-Jun-15 15:00N 40°41' W 074°09'0 0.1
2018-Jun-15 14:30N 40°41' W 074°09'0 0.9
2018-Jun-15 14:00N 40°41' W 074°08'2 4.0
2018-Jun-15 13:30N 40°39' W 074°08'1 2.1
2018-Jun-15 13:00N 40°39' W 074°06'0 0.2
2018-Jun-15 12:30N 40°39' W 074°06'4 8.2
2018-Jun-15 12:00N 40°36' W 074°03'4 7.9
2018-Jun-15 11:29N 40°34' W 073°58'3 6.5
2018-Jun-15 11:00N 40°34' W 073°54'6 0.7
2018-Jun-15 02:08N 40°36' W 074°02'1 8.4
2018-Jun-15 02:00N 40°37' W 074°03'4 6.8
2018-Jun-15 01:29N 40°39' W 074°06'0 0.2
2018-Jun-15 01:00N 40°39' W 074°06'3 5.1
2018-Jun-15 00:30N 40°39' W 074°03'3 5.0
2018-Jun-15 00:00N 40°40' W 074°00'0 0.1
2018-Jun-14 23:30N 40°40' W 074°00'0 0.0
2018-Jun-14 23:00N 40°40' W 074°00'0 0.0
2018-Jun-14 22:30N 40°40' W 074°00'0 0.0
2018-Jun-14 22:00N 40°40' W 074°00'0 0.0
2018-Jun-14 21:30N 40°40' W 074°00'0 0.0
2018-Jun-14 21:00N 40°40' W 074°00'0 0.0
2018-Jun-14 20:30N 40°40' W 074°00'0 0.2
2018-Jun-14 20:00N 40°40' W 074°00'4 7.2
2018-Jun-14 19:30N 40°39' W 074°05'1 2.6
2018-Jun-14 19:00N 40°39' W 074°06'3 6.3
2018-Jun-14 18:30N 40°40' W 074°03'2 3.9
2018-Jun-14 18:00N 40°40' W 074°00'0 0.0
2018-Jun-14 17:30N 40°40' W 074°00'0 0.0
2018-Jun-14 17:00N 40°40' W 074°00'0 0.0
2018-Jun-14 16:30N 40°40' W 074°00'0 0.0
2018-Jun-14 16:00N 40°40' W 074°00'0 0.0
2018-Jun-14 15:30N 40°40' W 074°00'0 0.0
2018-Jun-14 15:00N 40°40' W 074°00'0 0.5
2018-Jun-14 14:30N 40°40' W 074°00'3 6.1
2018-Jun-14 14:00N 40°39' W 074°04'1 1.6
2018-Jun-14 13:30N 40°39' W 074°05'0 0.9
2018-Jun-14 12:58N 40°39' W 074°06'2 3.3
2018-Jun-14 12:30N 40°40' W 074°04'0 0.6
2018-Jun-14 12:00N 40°40' W 074°04'1 2.1
2018-Jun-14 11:30N 40°40' W 074°03'1 1.5
2018-Jun-14 11:00N 40°41' W 074°03'1 1.3
2018-Jun-14 10:30N 40°40' W 074°03'2 3.4
2018-Jun-14 10:00N 40°40' W 074°05'0 0.0
2018-Jun-14 09:30N 40°40' W 074°05'0 0.0
2018-Jun-14 09:00N 40°40' W 074°05'0 0.0
2018-Jun-14 08:30N 40°40' W 074°05'0 0.0
2018-Jun-14 08:00N 40°40' W 074°05'0 0.0
2018-Jun-14 07:30N 40°40' W 074°05'0 0.0
2018-Jun-14 07:00N 40°40' W 074°05'0 0.0
2018-Jun-14 06:30N 40°40' W 074°05'0 0.0
2018-Jun-14 06:00N 40°40' W 074°05'0 0.0
2018-Jun-14 05:30N 40°40' W 074°05'0 0.0
2018-Jun-14 05:00N 40°40' W 074°05'0 0.0
2018-Jun-14 04:30N 40°40' W 074°05'0 0.0
2018-Jun-14 04:00N 40°40' W 074°05'0 0.0
2018-Jun-14 03:30N 40°40' W 074°05'0 0.0
2018-Jun-14 03:00N 40°40' W 074°05'0 0.0
2018-Jun-14 02:30N 40°40' W 074°05'2 3.3
2018-Jun-14 01:58N 40°39' W 074°07'0 0.3
2018-Jun-14 01:30N 40°39' W 074°06'1 1.0
2018-Jun-14 00:59N 40°39' W 074°06'1 1.5
2018-Jun-14 00:30N 40°39' W 074°05'1 2.2
2018-Jun-14 00:00N 40°40' W 074°04'0 0.1
2018-Jun-13 23:30N 40°40' W 074°04'0 0.0
2018-Jun-13 23:00N 40°40' W 074°04'0 0.9
2018-Jun-13 22:30N 40°40' W 074°04'2 4.5
2018-Jun-13 22:00N 40°39' W 074°07'3 4.5
2018-Jun-13 21:25N 40°39' W 074°10'0 0.2
2018-Jun-13 19:44N 40°39' W 074°11'2 9.0
2018-Jun-13 19:30N 40°39' W 074°08'4 8.5
2018-Jun-13 19:00N 40°39' W 074°02'2 4.2
2018-Jun-13 18:30N 40°40' W 073°60'0 0.0
2018-Jun-13 18:00N 40°40' W 074°00'0 0.0
2018-Jun-13 17:30N 40°40' W 074°00'0 0.1
2018-Jun-13 17:00N 40°40' W 074°00'3 5.7
2018-Jun-13 16:30N 40°39' W 074°04'2 4.0
2018-Jun-13 16:00N 40°39' W 074°06'3 6.6
2018-Jun-13 15:30N 40°41' W 074°03'1 3.0
2018-Jun-13 15:00N 40°40' W 074°04'3 4.0
2018-Jun-13 14:21N 40°39' W 074°07'3 7.7
2018-Jun-13 14:00N 40°39' W 074°04'3 5.6
2018-Jun-13 13:30N 40°40' W 074°00'0 0.0
2018-Jun-13 13:00N 40°40' W 074°00'0 0.0
2018-Jun-13 12:29N 40°40' W 074°00'0 0.0
2018-Jun-13 12:00N 40°40' W 074°00'0 0.9
2018-Jun-13 11:30N 40°40' W 074°01'3 5.2
2018-Jun-13 11:00N 40°39' W 074°04'2 4.7
2018-Jun-13 10:29N 40°39' W 074°07'3 5.2
2018-Jun-13 09:59N 40°39' W 074°10'1 2.3
2018-Jun-13 09:30N 40°38' W 074°12'0 0.0
2018-Jun-13 08:34N 40°38' W 074°12'0 0.0
2018-Jun-13 07:56N 40°38' W 074°12'0 0.0
2018-Jun-13 07:00N 40°38' W 074°12'0 0.0
2018-Jun-13 06:27N 40°38' W 074°12'0 0.0
2018-Jun-13 02:33N 40°38' W 074°12'0 0.1
2018-Jun-13 02:28N 40°38' W 074°12'1 1.5
2018-Jun-13 01:50N 40°39' W 074°11'3 8.6
2018-Jun-13 01:30N 40°39' W 074°07'4 8.5
2018-Jun-13 01:00N 40°39' W 074°01'1 2.3
2018-Jun-13 00:30N 40°40' W 074°00'0 0.0
2018-Jun-13 00:00N 40°40' W 074°00'0 0.0
2018-Jun-12 23:30N 40°40' W 074°00'0 0.0
2018-Jun-12 23:00N 40°40' W 074°00'0 0.0
2018-Jun-12 22:30N 40°40' W 074°00'0 0.1
2018-Jun-12 22:00N 40°40' W 074°00'0 0.0
2018-Jun-12 21:29N 40°40' W 074°00'0 0.0
2018-Jun-12 21:00N 40°40' W 074°00'0 0.0
2018-Jun-12 20:30N 40°40' W 074°00'0 0.0
2018-Jun-12 20:00N 40°40' W 074°00'0 0.0
2018-Jun-12 19:30N 40°40' W 074°00'0 0.0
2018-Jun-12 19:00N 40°40' W 074°00'0 0.0
2018-Jun-12 18:30N 40°40' W 074°00'0 0.0
2018-Jun-12 18:00N 40°40' W 074°00'0 0.0
2018-Jun-12 17:30N 40°40' W 074°00'0 0.0
2018-Jun-12 17:00N 40°40' W 074°00'0 0.0
2018-Jun-12 16:30N 40°40' W 074°00'0 0.0
2018-Jun-12 16:00N 40°40' W 074°00'0 0.0
2018-Jun-12 15:30N 40°40' W 074°00'0 0.0
2018-Jun-12 15:00N 40°40' W 074°00'0 0.0
2018-Jun-12 14:30N 40°40' W 074°00'0 0.0
2018-Jun-12 14:00N 40°40' W 074°00'0 0.0
2018-Jun-12 13:30N 40°40' W 074°00'0 0.0
2018-Jun-12 13:00N 40°40' W 074°00'  

Dump ship's entire track history